sensor_id;sensor_type;location;lat;lon;timestamp;pressure;altitude;pressure_sealevel;temperature;humidity
71105;BME280;58760;48.716;8.962;2023-05-12T00:02:08;96171.34;;;11.05;91.68
71105;BME280;58760;48.716;8.962;2023-05-12T00:04:34;96169.88;;;11.02;91.88
71105;BME280;58760;48.716;8.962;2023-05-12T00:07:00;96170.66;;;11.02;91.84
71105;BME280;58760;48.716;8.962;2023-05-12T00:09:26;96163.53;;;11.03;91.91
71105;BME280;58760;48.716;8.962;2023-05-12T00:11:51;96167.22;;;11.02;92.00
71105;BME280;58760;48.716;8.962;2023-05-12T00:14:18;96158.88;;;11.05;91.79
71105;BME280;58760;48.716;8.962;2023-05-12T00:16:43;96165.81;;;11.06;91.41
71105;BME280;58760;48.716;8.962;2023-05-12T00:19:09;96156.41;;;11.03;92.01
71105;BME280;58760;48.716;8.962;2023-05-12T00:21:34;96156.78;;;11.00;92.11
71105;BME280;58760;48.716;8.962;2023-05-12T00:24:00;96157.13;;;10.97;92.49
71105;BME280;58760;48.716;8.962;2023-05-12T00:26:25;96161.25;;;11.00;92.34
71105;BME280;58760;48.716;8.962;2023-05-12T00:28:51;96154.28;;;10.99;92.22
71105;BME280;58760;48.716;8.962;2023-05-12T00:31:17;96155.31;;;10.98;92.23
71105;BME280;58760;48.716;8.962;2023-05-12T00:33:42;96159.59;;;10.99;92.33
71105;BME280;58760;48.716;8.962;2023-05-12T00:36:08;96157.50;;;10.94;93.03
71105;BME280;58760;48.716;8.962;2023-05-12T00:38:33;96158.50;;;10.93;92.92
71105;BME280;58760;48.716;8.962;2023-05-12T00:41:00;96151.53;;;10.92;93.56
71105;BME280;58760;48.716;8.962;2023-05-12T00:43:25;96148.88;;;10.92;93.61
71105;BME280;58760;48.716;8.962;2023-05-12T00:45:51;96154.03;;;10.94;93.90
71105;BME280;58760;48.716;8.962;2023-05-12T00:48:17;96155.03;;;10.93;93.98
71105;BME280;58760;48.716;8.962;2023-05-12T00:50:42;96149.81;;;10.99;93.03
71105;BME280;58760;48.716;8.962;2023-05-12T00:53:08;96150.75;;;10.92;93.32
71105;BME280;58760;48.716;8.962;2023-05-12T00:55:34;96148.47;;;10.89;93.97
71105;BME280;58760;48.716;8.962;2023-05-12T00:58:01;96149.47;;;10.88;94.48
71105;BME280;58760;48.716;8.962;2023-05-12T01:00:26;96148.63;;;10.87;94.58
71105;BME280;58760;48.716;8.962;2023-05-12T01:02:51;96149.63;;;10.86;94.68
71105;BME280;58760;48.716;8.962;2023-05-12T01:05:17;96147.81;;;10.87;94.75
71105;BME280;58760;48.716;8.962;2023-05-12T01:07:43;96146.81;;;10.88;94.54
71105;BME280;58760;48.716;8.962;2023-05-12T01:10:20;96137.19;;;10.87;94.67
71105;BME280;58760;48.716;8.962;2023-05-12T01:12:46;96139.84;;;10.87;94.65
71105;BME280;58760;48.716;8.962;2023-05-12T01:15:12;96139.22;;;10.85;94.86
71105;BME280;58760;48.716;8.962;2023-05-12T01:17:39;96142.69;;;10.85;95.35
71105;BME280;58760;48.716;8.962;2023-05-12T01:20:07;96146.88;;;10.80;96.40
71105;BME280;58760;48.716;8.962;2023-05-12T01:22:36;96146.25;;;10.78;96.42
71105;BME280;58760;48.716;8.962;2023-05-12T01:25:03;96145.25;;;10.79;96.53
71105;BME280;58760;48.716;8.962;2023-05-12T01:27:30;96141.78;;;10.78;96.72
71105;BME280;58760;48.716;8.962;2023-05-12T01:29:59;96139.50;;;10.75;97.21
71105;BME280;58760;48.716;8.962;2023-05-12T01:32:25;96136.63;;;10.77;97.38
71105;BME280;58760;48.716;8.962;2023-05-12T01:34:50;96148.28;;;10.76;97.01
71105;BME280;58760;48.716;8.962;2023-05-12T01:37:16;96140.69;;;10.73;97.36
71105;BME280;58760;48.716;8.962;2023-05-12T01:39:42;96144.13;;;10.73;98.09
71105;BME280;58760;48.716;8.962;2023-05-12T01:42:07;96138.03;;;10.73;97.71
71105;BME280;58760;48.716;8.962;2023-05-12T01:44:32;96141.31;;;10.75;97.55
71105;BME280;58760;48.716;8.962;2023-05-12T01:46:58;96134.19;;;10.75;97.52
71105;BME280;58760;48.716;8.962;2023-05-12T01:49:23;96139.28;;;10.77;97.36
71105;BME280;58760;48.716;8.962;2023-05-12T01:51:49;96142.25;;;10.82;96.77
71105;BME280;58760;48.716;8.962;2023-05-12T01:54:14;96137.56;;;10.84;96.47
71105;BME280;58760;48.716;8.962;2023-05-12T01:56:40;96140.41;;;10.82;96.76
71105;BME280;58760;48.716;8.962;2023-05-12T01:59:06;96138.22;;;10.86;96.03
71105;BME280;58760;48.716;8.962;2023-05-12T02:01:31;96139.84;;;10.87;96.54
71105;BME280;58760;48.716;8.962;2023-05-12T02:03:57;96147.81;;;10.87;96.05
71105;BME280;58760;48.716;8.962;2023-05-12T02:06:24;96143.16;;;10.89;96.25
71105;BME280;58760;48.716;8.962;2023-05-12T02:08:50;96145.53;;;10.84;96.09
71105;BME280;58760;48.716;8.962;2023-05-12T02:11:15;96148.09;;;10.92;96.16
71105;BME280;58760;48.716;8.962;2023-05-12T02:13:41;96147.53;;;10.82;96.66
71105;BME280;58760;48.716;8.962;2023-05-12T02:16:09;96140.41;;;10.82;97.39
71105;BME280;58760;48.716;8.962;2023-05-12T02:18:34;96142.41;;;10.95;96.33
71105;BME280;58760;48.716;8.962;2023-05-12T02:21:01;96141.66;;;10.86;96.64
71105;BME280;58760;48.716;8.962;2023-05-12T02:23:26;96137.75;;;10.82;96.45
71105;BME280;58760;48.716;8.962;2023-05-12T02:25:51;96140.03;;;10.85;97.19
71105;BME280;58760;48.716;8.962;2023-05-12T02:28:17;96138.13;;;10.79;97.20
71105;BME280;58760;48.716;8.962;2023-05-12T02:30:47;96135.81;;;10.76;97.72
71105;BME280;58760;48.716;8.962;2023-05-12T02:33:16;96134.81;;;10.77;97.93
71105;BME280;58760;48.716;8.962;2023-05-12T02:35:43;96139.94;;;10.79;98.86
71105;BME280;58760;48.716;8.962;2023-05-12T02:38:09;96138.72;;;10.96;99.04
71105;BME280;58760;48.716;8.962;2023-05-12T02:40:34;96141.94;;;10.91;96.82
71105;BME280;58760;48.716;8.962;2023-05-12T02:42:59;96137.56;;;10.84;97.57
71105;BME280;58760;48.716;8.962;2023-05-12T02:45:25;96137.94;;;10.81;97.60
71105;BME280;58760;48.716;8.962;2023-05-12T02:47:50;96134.44;;;10.80;97.58
71105;BME280;58760;48.716;8.962;2023-05-12T02:50:16;96135.81;;;10.76;97.78
71105;BME280;58760;48.716;8.962;2023-05-12T02:52:41;96136.84;;;10.75;98.09
71105;BME280;58760;48.716;8.962;2023-05-12T02:55:07;96129.72;;;10.76;97.84
71105;BME280;58760;48.716;8.962;2023-05-12T02:57:32;96133.25;;;10.83;98.00
71105;BME280;58760;48.716;8.962;2023-05-12T03:00:00;96130.78;;;10.81;97.80
71105;BME280;58760;48.716;8.962;2023-05-12T03:02:26;96134.91;;;10.84;97.32
71105;BME280;58760;48.716;8.962;2023-05-12T03:04:51;96126.69;;;10.79;97.84
71105;BME280;58760;48.716;8.962;2023-05-12T03:07:17;96127.22;;;10.74;98.31
71105;BME280;58760;48.716;8.962;2023-05-12T03:09:42;96138.66;;;10.75;98.12
71105;BME280;58760;48.716;8.962;2023-05-12T03:12:08;96137.00;;;10.74;98.84
71105;BME280;58760;48.716;8.962;2023-05-12T03:14:34;96138.38;;;10.84;99.39
71105;BME280;58760;48.716;8.962;2023-05-12T03:16:59;96136.47;;;10.78;99.30
71105;BME280;58760;48.716;8.962;2023-05-12T03:19:24;96135.47;;;10.79;99.68
71105;BME280;58760;48.716;8.962;2023-05-12T03:21:52;96138.13;;;10.79;99.08
71105;BME280;58760;48.716;8.962;2023-05-12T03:24:18;96137.28;;;10.79;98.79
71105;BME280;58760;48.716;8.962;2023-05-12T03:26:43;96136.34;;;10.86;99.26
71105;BME280;58760;48.716;8.962;2023-05-12T03:29:08;96138.72;;;10.96;98.11
71105;BME280;58760;48.716;8.962;2023-05-12T03:31:34;96135.63;;;11.07;97.67
71105;BME280;58760;48.716;8.962;2023-05-12T03:33:59;96135.06;;;10.97;97.56
71105;BME280;58760;48.716;8.962;2023-05-12T03:36:25;96141.94;;;10.91;97.76
71105;BME280;58760;48.716;8.962;2023-05-12T03:38:50;96137.47;;;10.92;97.62
71105;BME280;58760;48.716;8.962;2023-05-12T03:41:16;96136.56;;;10.85;98.03
71105;BME280;58760;48.716;8.962;2023-05-12T03:43:41;96139.38;;;10.83;98.45
71105;BME280;58760;48.716;8.962;2023-05-12T03:46:07;96146.34;;;10.84;98.47
71105;BME280;58760;48.716;8.962;2023-05-12T03:48:32;96137.19;;;10.87;98.25
71105;BME280;58760;48.716;8.962;2023-05-12T03:50:57;96134.53;;;10.87;98.18
71105;BME280;58760;48.716;8.962;2023-05-12T03:53:23;96142.03;;;10.83;98.79
71105;BME280;58760;48.716;8.962;2023-05-12T03:55:48;96141.88;;;10.85;99.17
71105;BME280;58760;48.716;8.962;2023-05-12T03:58:14;96141.13;;;10.91;98.92
71105;BME280;58760;48.716;8.962;2023-05-12T04:00:39;96134.63;;;10.93;99.36
71105;BME280;58760;48.716;8.962;2023-05-12T04:03:04;96134.81;;;10.92;99.01
71105;BME280;58760;48.716;8.962;2023-05-12T04:05:30;96130.13;;;10.94;99.21
71105;BME280;58760;48.716;8.962;2023-05-12T04:07:55;96129.13;;;10.95;98.80
71105;BME280;58760;48.716;8.962;2023-05-12T04:10:20;96130.97;;;10.94;98.09
71105;BME280;58760;48.716;8.962;2023-05-12T04:12:46;96124.81;;;10.94;98.20
71105;BME280;58760;48.716;8.962;2023-05-12T04:15:12;96129.75;;;10.97;98.34
71105;BME280;58760;48.716;8.962;2023-05-12T04:17:39;96136.34;;;11.01;97.63
71105;BME280;58760;48.716;8.962;2023-05-12T04:20:05;96132.41;;;10.97;97.45
71105;BME280;58760;48.716;8.962;2023-05-12T04:22:31;96126.75;;;11.00;97.44
71105;BME280;58760;48.716;8.962;2023-05-12T04:24:56;96130.06;;;11.02;96.96
71105;BME280;58760;48.716;8.962;2023-05-12T04:27:22;96143.25;;;10.95;97.39
71105;BME280;58760;48.716;8.962;2023-05-12T04:29:47;96136.72;;;10.98;97.31
71105;BME280;58760;48.716;8.962;2023-05-12T04:32:13;96141.00;;;10.99;96.84
71105;BME280;58760;48.716;8.962;2023-05-12T04:34:38;96145.31;;;11.00;97.03
71105;BME280;58760;48.716;8.962;2023-05-12T04:37:03;96146.53;;;10.97;96.77
71105;BME280;58760;48.716;8.962;2023-05-12T04:39:29;96145.69;;;10.97;96.99
71105;BME280;58760;48.716;8.962;2023-05-12T04:41:55;96137.56;;;10.98;97.37
71105;BME280;58760;48.716;8.962;2023-05-12T04:44:20;96140.28;;;11.05;96.52
71105;BME280;58760;48.716;8.962;2023-05-12T04:46:46;96144.94;;;11.03;96.48
71105;BME280;58760;48.716;8.962;2023-05-12T04:49:12;96146.22;;;11.07;97.04
71105;BME280;58760;48.716;8.962;2023-05-12T04:51:37;96145.28;;;11.29;96.74
71105;BME280;58760;48.716;8.962;2023-05-12T04:54:08;96154.38;;;11.20;95.90
71105;BME280;58760;48.716;8.962;2023-05-12T04:56:33;96149.22;;;11.33;96.02
71105;BME280;58760;48.716;8.962;2023-05-12T04:58:59;96145.94;;;11.31;95.14
71105;BME280;58760;48.716;8.962;2023-05-12T05:01:24;96155.72;;;11.31;93.47
71105;BME280;58760;48.716;8.962;2023-05-12T05:03:50;96155.00;;;11.22;94.17
71105;BME280;58760;48.716;8.962;2023-05-12T05:06:15;96161.50;;;11.20;94.42
71105;BME280;58760;48.716;8.962;2023-05-12T05:08:41;96156.69;;;11.44;95.22
71105;BME280;58760;48.716;8.962;2023-05-12T05:11:06;96153.31;;;11.50;94.73
71105;BME280;58760;48.716;8.962;2023-05-12T05:13:31;96160.28;;;11.37;94.15
71105;BME280;58760;48.716;8.962;2023-05-12T05:15:57;96157.19;;;11.33;94.51
71105;BME280;58760;48.716;8.962;2023-05-12T05:18:22;96156.44;;;11.39;94.13
71105;BME280;58760;48.716;8.962;2023-05-12T05:20:47;96152.53;;;11.57;92.77
71105;BME280;58760;48.716;8.962;2023-05-12T05:23:13;96160.06;;;11.53;92.79
71105;BME280;58760;48.716;8.962;2023-05-12T05:25:38;96159.06;;;11.54;92.66
71105;BME280;58760;48.716;8.962;2023-05-12T05:28:04;96162.28;;;11.49;91.96
71105;BME280;58760;48.716;8.962;2023-05-12T05:30:29;96169.75;;;11.61;91.79
71105;BME280;58760;48.716;8.962;2023-05-12T05:32:55;96167.91;;;11.61;91.02
71105;BME280;58760;48.716;8.962;2023-05-12T05:35:20;96162.88;;;11.66;90.39
71105;BME280;58760;48.716;8.962;2023-05-12T05:37:45;96169.84;;;11.67;90.04
71105;BME280;58760;48.716;8.962;2023-05-12T05:40:11;96171.19;;;11.78;88.84
71105;BME280;58760;48.716;8.962;2023-05-12T05:42:36;96168.91;;;11.75;88.88
71105;BME280;58760;48.716;8.962;2023-05-12T05:45:02;96165.63;;;11.94;89.79
71105;BME280;58760;48.716;8.962;2023-05-12T05:47:27;96170.56;;;11.97;88.88
71105;BME280;58760;48.716;8.962;2023-05-12T05:49:53;96179.66;;;11.88;89.87
71105;BME280;58760;48.716;8.962;2023-05-12T05:52:19;96177.00;;;11.88;89.72
71105;BME280;58760;48.716;8.962;2023-05-12T05:54:45;96171.47;;;11.83;89.54
71105;BME280;58760;48.716;8.962;2023-05-12T05:57:10;96179.22;;;11.84;89.00
71105;BME280;58760;48.716;8.962;2023-05-12T05:59:36;96172.59;;;11.95;89.24
71105;BME280;58760;48.716;8.962;2023-05-12T06:02:01;96175.00;;;12.11;87.99
71105;BME280;58760;48.716;8.962;2023-05-12T06:04:27;96175.59;;;12.13;88.18
71105;BME280;58760;48.716;8.962;2023-05-12T06:06:53;96183.84;;;12.18;88.20
71105;BME280;58760;48.716;8.962;2023-05-12T06:09:18;96177.00;;;12.30;86.89
71105;BME280;58760;48.716;8.962;2023-05-12T06:11:44;96176.38;;;12.28;86.05
71105;BME280;58760;48.716;8.962;2023-05-12T06:14:09;96177.72;;;12.45;86.22
71105;BME280;58760;48.716;8.962;2023-05-12T06:16:35;96181.97;;;12.61;84.65
71105;BME280;58760;48.716;8.962;2023-05-12T06:19:01;96185.34;;;12.76;83.12
71105;BME280;58760;48.716;8.962;2023-05-12T06:21:26;96184.97;;;12.86;82.97
71105;BME280;58760;48.716;8.962;2023-05-12T06:23:52;96190.47;;;12.78;81.83
71105;BME280;58760;48.716;8.962;2023-05-12T06:26:20;96192.03;;;13.00;79.36
71105;BME280;58760;48.716;8.962;2023-05-12T06:28:46;96190.22;;;13.00;80.50
71105;BME280;58760;48.716;8.962;2023-05-12T06:31:12;96195.41;;;13.08;79.45
71105;BME280;58760;48.716;8.962;2023-05-12T06:33:37;96192.16;;;13.13;79.79
71105;BME280;58760;48.716;8.962;2023-05-12T06:36:03;96195.41;;;13.08;80.27
71105;BME280;58760;48.716;8.962;2023-05-12T06:38:28;96190.00;;;13.36;78.15
71105;BME280;58760;48.716;8.962;2023-05-12T06:40:53;96190.38;;;13.33;79.19
71105;BME280;58760;48.716;8.962;2023-05-12T06:43:19;96189.22;;;13.42;77.26
71105;BME280;58760;48.716;8.962;2023-05-12T06:45:44;96190.59;;;13.32;77.94
71105;BME280;58760;48.716;8.962;2023-05-12T06:48:09;96187.97;;;13.38;76.42
71105;BME280;58760;48.716;8.962;2023-05-12T06:50:35;96189.19;;;13.36;76.82
71105;BME280;58760;48.716;8.962;2023-05-12T06:53:01;96192.03;;;13.34;77.39
71105;BME280;58760;48.716;8.962;2023-05-12T06:55:26;96197.66;;;13.52;77.13
71105;BME280;58760;48.716;8.962;2023-05-12T06:57:52;96195.81;;;13.59;77.41
71105;BME280;58760;48.716;8.962;2023-05-12T07:00:21;96188.69;;;13.67;76.32
71105;BME280;58760;48.716;8.962;2023-05-12T07:02:47;96188.09;;;13.71;76.25
71105;BME280;58760;48.716;8.962;2023-05-12T07:05:12;96196.06;;;13.65;76.79
71105;BME280;58760;48.716;8.962;2023-05-12T07:07:37;96191.38;;;13.80;76.68
71105;BME280;58760;48.716;8.962;2023-05-12T07:10:03;96184.44;;;13.98;74.27
71105;BME280;58760;48.716;8.962;2023-05-12T07:12:28;96193.91;;;13.94;75.44
71105;BME280;58760;48.716;8.962;2023-05-12T07:14:54;96195.50;;;13.89;74.31
71105;BME280;58760;48.716;8.962;2023-05-12T07:17:19;96189.38;;;13.95;73.86
71105;BME280;58760;48.716;8.962;2023-05-12T07:19:45;96192.25;;;14.00;72.52
71105;BME280;58760;48.716;8.962;2023-05-12T07:22:11;96184.84;;;13.89;75.19
71105;BME280;58760;48.716;8.962;2023-05-12T07:24:36;96182.00;;;13.97;75.38
71105;BME280;58760;48.716;8.962;2023-05-12T07:27:03;96182.44;;;14.07;75.26
71105;BME280;58760;48.716;8.962;2023-05-12T07:29:28;96185.53;;;14.30;76.63
71105;BME280;58760;48.716;8.962;2023-05-12T07:31:54;96179.19;;;14.51;75.36
71105;BME280;58760;48.716;8.962;2023-05-12T07:34:19;96183.88;;;14.23;76.06
71105;BME280;58760;48.716;8.962;2023-05-12T07:36:45;96185.50;;;14.04;77.35
71105;BME280;58760;48.716;8.962;2023-05-12T07:39:10;96190.38;;;13.87;78.73
71105;BME280;58760;48.716;8.962;2023-05-12T07:41:39;96186.50;;;13.90;78.59
71105;BME280;58760;48.716;8.962;2023-05-12T07:44:05;96189.75;;;13.92;77.99
71105;BME280;58760;48.716;8.962;2023-05-12T07:46:30;96181.38;;;14.08;77.91
71105;BME280;58760;48.716;8.962;2023-05-12T07:48:56;96196.00;;;14.25;76.25
71105;BME280;58760;48.716;8.962;2023-05-12T07:51:21;96197.41;;;14.28;78.70
71105;BME280;58760;48.716;8.962;2023-05-12T07:53:47;96190.09;;;14.43;76.20
71105;BME280;58760;48.716;8.962;2023-05-12T07:56:13;96190.28;;;14.48;73.80
71105;BME280;58760;48.716;8.962;2023-05-12T07:58:38;96186.59;;;14.49;74.92
71105;BME280;58760;48.716;8.962;2023-05-12T08:01:04;96180.63;;;14.53;74.48
71105;BME280;58760;48.716;8.962;2023-05-12T08:03:32;96181.66;;;14.52;74.50
71105;BME280;58760;48.716;8.962;2023-05-12T08:05:57;96181.84;;;14.44;77.00
71105;BME280;58760;48.716;8.962;2023-05-12T08:08:22;96181.25;;;14.69;74.54
71105;BME280;58760;48.716;8.962;2023-05-12T08:10:48;96178.34;;;14.63;74.44
71105;BME280;58760;48.716;8.962;2023-05-12T08:13:13;96181.84;;;14.71;72.24
71105;BME280;58760;48.716;8.962;2023-05-12T08:15:38;96182.28;;;14.54;73.77
71105;BME280;58760;48.716;8.962;2023-05-12T08:18:04;96185.16;;;14.59;75.04
71105;BME280;58760;48.716;8.962;2023-05-12T08:20:29;96189.03;;;14.57;73.23
71105;BME280;58760;48.716;8.962;2023-05-12T08:22:56;96178.56;;;14.69;74.00
71105;BME280;58760;48.716;8.962;2023-05-12T08:25:21;96187.00;;;14.79;73.54
71105;BME280;58760;48.716;8.962;2023-05-12T08:27:47;96182.41;;;15.05;71.57
71105;BME280;58760;48.716;8.962;2023-05-12T08:30:13;96178.50;;;15.14;72.56
71105;BME280;58760;48.716;8.962;2023-05-12T08:32:38;96175.78;;;15.34;68.66
71105;BME280;58760;48.716;8.962;2023-05-12T08:35:04;96185.78;;;15.45;69.80
71105;BME280;58760;48.716;8.962;2023-05-12T08:37:30;96183.03;;;15.72;70.55
71105;BME280;58760;48.716;8.962;2023-05-12T08:39:56;96182.47;;;16.01;69.01
71105;BME280;58760;48.716;8.962;2023-05-12T08:45:03;96184.50;;;16.05;67.35
71105;BME280;58760;48.716;8.962;2023-05-12T08:47:30;96187.78;;;16.07;66.71
71105;BME280;58760;48.716;8.962;2023-05-12T08:50:01;96194.59;;;15.65;67.33
71105;BME280;58760;48.716;8.962;2023-05-12T08:52:34;96186.19;;;15.55;66.98
71105;BME280;58760;48.716;8.962;2023-05-12T08:55:00;96179.31;;;15.15;68.71
71105;BME280;58760;48.716;8.962;2023-05-12T08:57:26;96193.31;;;15.04;69.16
71105;BME280;58760;48.716;8.962;2023-05-12T08:59:55;96191.06;;;14.94;69.88
71105;BME280;58760;48.716;8.962;2023-05-12T09:02:22;96190.38;;;15.25;70.74
71105;BME280;58760;48.716;8.962;2023-05-12T09:04:51;96192.69;;;15.15;69.51
71105;BME280;58760;48.716;8.962;2023-05-12T09:07:17;96190.59;;;15.30;70.41
71105;BME280;58760;48.716;8.962;2023-05-12T09:09:44;96190.75;;;15.35;69.56
71105;BME280;58760;48.716;8.962;2023-05-12T09:12:12;96188.47;;;15.52;70.04
71105;BME280;58760;48.716;8.962;2023-05-12T09:14:39;96191.13;;;15.58;66.42
71105;BME280;58760;48.716;8.962;2023-05-12T09:17:06;96189.31;;;15.39;66.78
71105;BME280;58760;48.716;8.962;2023-05-12T09:19:31;96191.03;;;15.14;68.24
71105;BME280;58760;48.716;8.962;2023-05-12T09:21:59;96191.81;;;15.34;68.20
71105;BME280;58760;48.716;8.962;2023-05-12T09:27:00;96188.72;;;15.37;68.50
71105;BME280;58760;48.716;8.962;2023-05-12T09:29:26;96189.53;;;15.44;66.47
71105;BME280;58760;48.716;8.962;2023-05-12T09:31:53;96191.38;;;15.50;67.20
71105;BME280;58760;48.716;8.962;2023-05-12T09:34:26;96191.75;;;15.47;67.12
71105;BME280;58760;48.716;8.962;2023-05-12T09:36:55;96194.66;;;15.39;68.64
71105;BME280;58760;48.716;8.962;2023-05-12T09:39:20;96194.47;;;15.41;67.66
71105;BME280;58760;48.716;8.962;2023-05-12T09:41:46;96200.72;;;15.15;68.03
71105;BME280;58760;48.716;8.962;2023-05-12T09:44:14;96195.97;;;15.10;68.53
71105;BME280;58760;48.716;8.962;2023-05-12T09:46:41;96199.69;;;14.90;68.84
71105;BME280;58760;48.716;8.962;2023-05-12T09:49:06;96193.78;;;14.68;70.85
71105;BME280;58760;48.716;8.962;2023-05-12T09:51:32;96201.59;;;14.63;69.88
71105;BME280;58760;48.716;8.962;2023-05-12T09:53:57;96197.69;;;14.52;70.04
71105;BME280;58760;48.716;8.962;2023-05-12T09:56:26;96198.69;;;14.38;70.55
71105;BME280;58760;48.716;8.962;2023-05-12T09:58:52;96202.34;;;14.24;71.12
71105;BME280;58760;48.716;8.962;2023-05-12T10:01:19;96197.41;;;14.21;72.74
71105;BME280;58760;48.716;8.962;2023-05-12T10:03:48;96197.47;;;14.34;71.52
71105;BME280;58760;48.716;8.962;2023-05-12T10:06:19;96199.72;;;14.37;72.13
71105;BME280;58760;48.716;8.962;2023-05-12T10:08:50;96203.84;;;14.59;71.42
71105;BME280;58760;48.716;8.962;2023-05-12T10:11:18;96205.06;;;14.77;71.55
71105;BME280;58760;48.716;8.962;2023-05-12T10:13:45;96196.03;;;14.84;70.29
71105;BME280;58760;48.716;8.962;2023-05-12T10:16:11;96206.28;;;14.81;70.68
71105;BME280;58760;48.716;8.962;2023-05-12T10:18:37;96197.03;;;14.83;70.21
71105;BME280;58760;48.716;8.962;2023-05-12T10:21:04;96206.50;;;14.92;68.99
71105;BME280;58760;48.716;8.962;2023-05-12T10:23:31;96198.09;;;14.89;69.96
71105;BME280;58760;48.716;8.962;2023-05-12T10:25:57;96197.03;;;14.90;70.95
71105;BME280;58760;48.716;8.962;2023-05-12T10:28:29;96189.81;;;15.10;69.86
71105;BME280;58760;48.716;8.962;2023-05-12T10:30:55;96198.84;;;15.09;68.42
71105;BME280;58760;48.716;8.962;2023-05-12T10:33:21;96190.84;;;14.96;69.59
71105;BME280;58760;48.716;8.962;2023-05-12T10:35:47;96195.19;;;14.84;70.13
71105;BME280;58760;48.716;8.962;2023-05-12T10:38:14;96192.94;;;14.81;70.44
71105;BME280;58760;48.716;8.962;2023-05-12T10:40:55;96194.38;;;14.77;70.39
71105;BME280;58760;48.716;8.962;2023-05-12T10:43:26;96189.66;;;14.79;70.72
71105;BME280;58760;48.716;8.962;2023-05-12T10:48:36;96188.63;;;14.80;70.54
71105;BME280;58760;48.716;8.962;2023-05-12T10:51:18;96187.00;;;14.72;70.10
71105;BME280;58760;48.716;8.962;2023-05-12T10:53:44;96194.78;;;14.87;68.57
71105;BME280;58760;48.716;8.962;2023-05-12T10:56:09;96185.75;;;14.88;68.23
71105;BME280;58760;48.716;8.962;2023-05-12T10:58:34;96186.16;;;14.91;67.62
71105;BME280;58760;48.716;8.962;2023-05-12T11:01:05;96189.84;;;14.97;67.33
71105;BME280;58760;48.716;8.962;2023-05-12T11:03:31;96186.75;;;14.93;68.49
71105;BME280;58760;48.716;8.962;2023-05-12T11:06:04;96193.94;;;14.93;68.68
71105;BME280;58760;48.716;8.962;2023-05-12T11:08:31;96195.19;;;14.90;68.41
71105;BME280;58760;48.716;8.962;2023-05-12T11:10:59;96198.44;;;15.05;68.76
71105;BME280;58760;48.716;8.962;2023-05-12T11:13:25;96187.72;;;15.18;68.50
71105;BME280;58760;48.716;8.962;2023-05-12T11:15:51;96195.94;;;15.24;67.62
71105;BME280;58760;48.716;8.962;2023-05-12T11:18:20;96202.94;;;15.31;67.17
71105;BME280;58760;48.716;8.962;2023-05-12T11:20:46;96194.94;;;15.25;67.31
71105;BME280;58760;48.716;8.962;2023-05-12T11:23:22;96199.44;;;15.24;68.03
71105;BME280;58760;48.716;8.962;2023-05-12T11:25:49;96194.66;;;15.39;67.97
71105;BME280;58760;48.716;8.962;2023-05-12T11:28:14;96189.72;;;15.49;67.77
71105;BME280;58760;48.716;8.962;2023-05-12T11:30:48;96197.13;;;15.47;67.29
71105;BME280;58760;48.716;8.962;2023-05-12T11:33:18;96197.31;;;15.46;67.73
71105;BME280;58760;48.716;8.962;2023-05-12T11:35:44;96199.84;;;15.34;67.85
71105;BME280;58760;48.716;8.962;2023-05-12T11:38:15;96199.63;;;15.23;68.39
71105;BME280;58760;48.716;8.962;2023-05-12T11:40:41;96193.47;;;15.22;68.34
71105;BME280;58760;48.716;8.962;2023-05-12T11:43:09;96202.72;;;15.19;68.82
71105;BME280;58760;48.716;8.962;2023-05-12T11:45:34;96199.88;;;15.21;68.79
71105;BME280;58760;48.716;8.962;2023-05-12T11:48:10;96198.25;;;15.07;69.32
71105;BME280;58760;48.716;8.962;2023-05-12T11:50:38;96200.09;;;15.06;70.10
71105;BME280;58760;48.716;8.962;2023-05-12T11:53:04;96199.69;;;14.96;71.21
71105;BME280;58760;48.716;8.962;2023-05-12T11:55:29;96208.13;;;15.00;72.12
71105;BME280;58760;48.716;8.962;2023-05-12T11:58:00;96222.72;;;14.91;73.16
71105;BME280;58760;48.716;8.962;2023-05-12T12:00:32;96218.63;;;14.82;74.77
71105;BME280;58760;48.716;8.962;2023-05-12T12:03:11;96217.59;;;14.70;76.73
71105;BME280;58760;48.716;8.962;2023-05-12T12:05:39;96218.22;;;14.65;78.01
71105;BME280;58760;48.716;8.962;2023-05-12T12:08:12;96231.59;;;14.65;81.30
71105;BME280;58760;48.716;8.962;2023-05-12T12:10:38;96227.25;;;14.57;82.24
71105;BME280;58760;48.716;8.962;2023-05-12T12:13:07;96224.78;;;14.36;81.30
71105;BME280;58760;48.716;8.962;2023-05-12T12:15:32;96233.81;;;14.35;80.78
71105;BME280;58760;48.716;8.962;2023-05-12T12:17:58;96238.69;;;14.32;82.86
71105;BME280;58760;48.716;8.962;2023-05-12T12:20:23;96241.09;;;14.00;83.81
71105;BME280;58760;48.716;8.962;2023-05-12T12:22:50;96242.16;;;14.12;86.35
71105;BME280;58760;48.716;8.962;2023-05-12T12:25:15;96240.72;;;14.10;86.43
71105;BME280;58760;48.716;8.962;2023-05-12T12:27:41;96247.28;;;14.07;86.95
71105;BME280;58760;48.716;8.962;2023-05-12T12:30:07;96245.66;;;14.13;87.11
71105;BME280;58760;48.716;8.962;2023-05-12T12:32:32;96243.63;;;14.28;86.74
71105;BME280;58760;48.716;8.962;2023-05-12T12:34:57;96249.78;;;14.29;83.59
71105;BME280;58760;48.716;8.962;2023-05-12T12:37:25;96241.84;;;14.61;85.29
71105;BME280;58760;48.716;8.962;2023-05-12T12:39:50;96242.69;;;14.88;82.75
71105;BME280;58760;48.716;8.962;2023-05-12T12:42:16;96248.19;;;15.06;81.87
71105;BME280;58760;48.716;8.962;2023-05-12T12:44:41;96239.72;;;15.29;80.57
71105;BME280;58760;48.716;8.962;2023-05-12T12:47:07;96241.13;;;15.38;79.63
71105;BME280;58760;48.716;8.962;2023-05-12T12:49:33;96233.75;;;15.53;77.29
71105;BME280;58760;48.716;8.962;2023-05-12T12:51:58;96243.59;;;15.59;75.28
71105;BME280;58760;48.716;8.962;2023-05-12T12:54:23;96240.06;;;15.65;77.68
71105;BME280;58760;48.716;8.962;2023-05-12T12:56:51;96243.94;;;15.76;78.07
71105;BME280;58760;48.716;8.962;2023-05-12T12:59:16;96245.31;;;15.92;77.58
71105;BME280;58760;48.716;8.962;2023-05-12T13:01:42;96247.00;;;15.86;79.38
71105;BME280;58760;48.716;8.962;2023-05-12T13:04:07;96251.13;;;15.82;77.20